createdAt,value
2022-10-23T00:01:19.958Z,10.16
2022-10-23T00:03:47.146Z,10.16
2022-10-23T00:06:14.548Z,10.11
2022-10-23T00:08:41.435Z,10.10
2022-10-23T00:11:09.815Z,10.10
2022-10-23T00:13:36.443Z,10.15
2022-10-23T00:16:02.862Z,10.20
2022-10-23T00:18:29.247Z,10.26
2022-10-23T00:20:56.443Z,10.16
2022-10-23T00:23:23.190Z,10.13
2022-10-23T00:25:49.524Z,10.10
2022-10-23T00:28:15.883Z,10.07
2022-10-23T00:30:42.480Z,10.02
2022-10-23T00:33:09.244Z,10.07
2022-10-23T00:35:39.679Z,10.05
2022-10-23T00:38:06.692Z,10.04
2022-10-23T00:40:33.180Z,9.99
2022-10-23T00:42:59.483Z,9.95
2022-10-23T00:45:28.562Z,9.95
2022-10-23T00:47:55.312Z,9.92
2022-10-23T00:50:23.825Z,9.91
2022-10-23T00:52:53.011Z,9.95
2022-10-23T00:55:23.299Z,9.92
2022-10-23T00:57:50.801Z,9.90
2022-10-23T01:00:27.021Z,9.85
2022-10-23T01:02:54.654Z,9.88
2022-10-23T01:05:27.189Z,9.84
2022-10-23T01:08:02.337Z,9.86
2022-10-23T01:10:45.338Z,9.80
2022-10-23T01:13:16.646Z,9.85
2022-10-23T01:15:49.015Z,9.82
2022-10-23T01:18:24.896Z,9.85
2022-10-23T01:21:04.970Z,9.80
2022-10-23T01:23:46.305Z,9.85
2022-10-23T01:26:43.987Z,9.83
2022-10-23T01:29:18.923Z,9.81
2022-10-23T01:31:49.205Z,9.70
2022-10-23T01:34:22.226Z,9.77
2022-10-23T01:36:51.677Z,9.74
2022-10-23T01:39:30.944Z,9.77
2022-10-23T01:42:08.715Z,9.71
2022-10-23T01:44:46.720Z,9.68
2022-10-23T01:47:15.923Z,9.69
2022-10-23T01:49:44.416Z,9.63
2022-10-23T01:52:14.115Z,9.62
2022-10-23T01:54:44.679Z,9.50
2022-10-23T01:57:16.106Z,9.48
2022-10-23T01:59:49.520Z,9.45
2022-10-23T02:02:17.465Z,9.45
2022-10-23T02:04:58.819Z,9.41
2022-10-23T02:07:25.266Z,9.41
2022-10-23T02:09:52.054Z,9.42
2022-10-23T02:12:40.285Z,9.43
2022-10-23T02:15:14.781Z,9.47
2022-10-23T02:18:17.219Z,9.41
2022-10-23T02:20:48.146Z,9.49
2022-10-23T02:23:21.538Z,9.45
2022-10-23T02:25:56.800Z,9.39
2022-10-23T02:28:34.206Z,9.29
2022-10-23T02:31:03.836Z,9.28
2022-10-23T02:33:31.276Z,9.35
2022-10-23T02:35:57.725Z,9.30
2022-10-23T02:38:29.770Z,9.31
2022-10-23T02:41:00.938Z,9.35
2022-10-23T02:43:37.208Z,9.28
2022-10-23T02:46:14.538Z,9.34
2022-10-23T02:48:51.530Z,9.19
2022-10-23T02:51:20.627Z,9.16
2022-10-23T02:54:31.476Z,9.09
2022-10-23T02:57:40.833Z,9.18
2022-10-23T03:00:15.234Z,9.00
2022-10-23T03:02:54.758Z,8.93
2022-10-23T03:05:25.542Z,9.00
2022-10-23T03:07:52.027Z,8.98
2022-10-23T03:10:18.423Z,9.01
2022-10-23T03:12:45.096Z,8.99
2022-10-23T03:15:11.857Z,8.99
2022-10-23T03:17:38.409Z,8.94
2022-10-23T03:20:06.449Z,9.00
2022-10-23T03:22:32.876Z,9.01
2022-10-23T03:24:59.211Z,8.96
2022-10-23T03:27:25.665Z,8.94
2022-10-23T03:29:52.051Z,8.89
2022-10-23T03:32:18.419Z,8.86
2022-10-23T03:34:44.767Z,8.79
2022-10-23T03:37:11.123Z,8.74
2022-10-23T03:39:37.449Z,8.76
2022-10-23T03:42:04.035Z,8.72
2022-10-23T03:44:30.400Z,8.71
2022-10-23T03:46:57.431Z,8.75
2022-10-23T03:49:23.735Z,8.79
2022-10-23T03:51:50.084Z,8.85
2022-10-23T03:54:16.402Z,8.88
2022-10-23T03:56:42.703Z,8.90
2022-10-23T03:59:09.051Z,8.97
2022-10-23T04:01:35.470Z,8.99
2022-10-23T04:04:01.925Z,9.02
2022-10-23T04:06:28.262Z,9.15
2022-10-23T04:08:54.729Z,9.18
2022-10-23T04:11:21.040Z,9.30
2022-10-23T04:13:47.510Z,9.27
2022-10-23T04:16:13.837Z,9.28
2022-10-23T04:18:41.441Z,9.32
2022-10-23T04:21:07.958Z,9.32
2022-10-23T04:23:34.267Z,9.31
2022-10-23T04:26:00.653Z,9.41
2022-10-23T04:28:27.496Z,9.39
2022-10-23T04:30:53.940Z,9.38
2022-10-23T04:33:21.359Z,9.41
2022-10-23T04:35:47.708Z,9.46
2022-10-23T04:38:14.008Z,9.50
2022-10-23T04:40:40.369Z,9.46
2022-10-23T04:43:06.706Z,9.51
2022-10-23T04:45:33.050Z,9.50
2022-10-23T04:47:59.371Z,9.51
2022-10-23T04:50:25.987Z,9.58
2022-10-23T04:52:58.690Z,9.53
2022-10-23T04:55:25.043Z,9.59
2022-10-23T04:57:52.182Z,9.61
2022-10-23T05:00:19.216Z,9.58
2022-10-23T05:02:45.823Z,9.63
2022-10-23T05:05:12.159Z,9.57
2022-10-23T05:07:38.854Z,9.55
2022-10-23T05:10:06.448Z,9.62
2022-10-23T05:12:32.757Z,9.66
2022-10-23T05:14:59.074Z,9.65
2022-10-23T05:17:34.399Z,9.58
2022-10-23T05:20:05.107Z,9.59
2022-10-23T05:22:35.244Z,9.58
2022-10-23T05:25:01.898Z,9.58
2022-10-23T05:27:28.275Z,9.60
2022-10-23T05:29:54.593Z,9.57
2022-10-23T05:34:54.038Z,9.54
2022-10-23T05:37:20.453Z,9.54
2022-10-23T05:39:46.914Z,9.55
2022-10-23T05:42:13.374Z,9.62
2022-10-23T05:44:39.762Z,9.58
2022-10-23T05:47:07.659Z,9.60
2022-10-23T05:49:34.515Z,9.65
2022-10-23T05:52:00.817Z,9.69
2022-10-23T05:54:27.190Z,9.68
2022-10-23T05:56:53.490Z,9.75
2022-10-23T05:59:22.865Z,9.78
2022-10-23T06:01:49.987Z,9.87
2022-10-23T06:04:16.381Z,9.89
2022-10-23T06:06:45.621Z,9.94
2022-10-23T06:09:12.199Z,9.96
2022-10-23T06:11:38.551Z,10.06
2022-10-23T06:14:04.877Z,10.10
2022-10-23T06:16:31.217Z,10.12
2022-10-23T06:18:57.570Z,10.17
2022-10-23T06:21:24.363Z,10.16
2022-10-23T06:23:50.744Z,10.27
2022-10-23T06:26:18.457Z,10.36
2022-10-23T06:28:45.257Z,10.39
2022-10-23T06:31:14.797Z,10.49
2022-10-23T06:33:41.963Z,10.50
2022-10-23T06:36:08.807Z,10.56
2022-10-23T06:38:35.114Z,10.59
2022-10-23T06:41:01.440Z,10.66
2022-10-23T06:43:27.760Z,10.73
2022-10-23T06:45:54.108Z,10.77
2022-10-23T06:48:20.603Z,10.84
2022-10-23T06:50:46.971Z,10.85
2022-10-23T06:53:13.361Z,10.90
2022-10-23T06:55:39.720Z,11.00
2022-10-23T06:58:07.128Z,10.98
2022-10-23T07:00:33.461Z,11.03
2022-10-23T07:02:59.854Z,11.07
2022-10-23T07:05:26.195Z,11.19
2022-10-23T07:07:52.506Z,11.22
2022-10-23T07:10:18.824Z,11.24
2022-10-23T07:12:45.655Z,11.26
2022-10-23T07:15:12.157Z,11.27
2022-10-23T07:17:38.473Z,11.19
2022-10-23T07:20:05.203Z,11.36
2022-10-23T07:22:31.510Z,11.45
2022-10-23T07:24:57.880Z,11.53
2022-10-23T07:27:25.120Z,11.57
2022-10-23T07:29:52.299Z,11.69
2022-10-23T07:32:19.340Z,11.68
2022-10-23T07:34:45.726Z,11.61
2022-10-23T07:37:12.086Z,11.70
2022-10-23T07:39:38.408Z,11.81
2022-10-23T07:42:04.837Z,11.70
2022-10-23T07:44:31.155Z,11.97
2022-10-23T07:46:57.445Z,12.11
2022-10-23T07:49:23.770Z,12.21
2022-10-23T07:51:51.598Z,12.03
2022-10-23T07:54:18.190Z,12.27
2022-10-23T07:56:44.553Z,12.25
2022-10-23T07:59:12.634Z,12.42
2022-10-23T08:01:39.894Z,12.53
2022-10-23T08:04:06.721Z,12.61
2022-10-23T08:06:33.706Z,12.58
2022-10-23T08:09:02.369Z,12.69
2022-10-23T08:11:32.444Z,12.68
2022-10-23T08:13:58.797Z,12.73
2022-10-23T08:16:25.600Z,13.03
2022-10-23T08:18:52.037Z,13.08
2022-10-23T08:21:18.736Z,13.25
2022-10-23T08:23:45.060Z,13.40
2022-10-23T08:26:11.860Z,13.39
2022-10-23T08:28:38.465Z,13.49
2022-10-23T08:31:14.216Z,13.54
2022-10-23T08:33:41.090Z,13.51
2022-10-23T08:36:16.935Z,13.50
2022-10-23T08:38:43.555Z,13.64
2022-10-23T08:41:27.277Z,13.71
2022-10-23T08:44:18.806Z,13.77
2022-10-23T08:46:50.525Z,13.96
2022-10-23T08:49:26.031Z,13.93
2022-10-23T08:51:56.826Z,14.00
2022-10-23T08:54:44.983Z,14.06
2022-10-23T08:57:15.632Z,14.10
2022-10-23T08:59:48.899Z,14.12
2022-10-23T09:02:25.927Z,14.23
2022-10-23T09:04:54.329Z,14.26
2022-10-23T09:07:57.963Z,14.15
2022-10-23T09:10:48.049Z,14.31
2022-10-23T09:13:32.085Z,14.33
2022-10-23T09:16:21.730Z,14.29
2022-10-23T09:18:49.678Z,14.35
2022-10-23T09:21:16.061Z,14.33
2022-10-23T09:23:42.658Z,14.43
2022-10-23T09:26:15.345Z,14.28
2022-10-23T09:29:02.082Z,14.38
2022-10-23T09:31:28.419Z,14.48
2022-10-23T09:33:57.049Z,14.39
2022-10-23T09:36:24.476Z,14.33
2022-10-23T09:38:53.078Z,14.51
2022-10-23T09:41:23.198Z,14.72
2022-10-23T09:44:07.615Z,14.90
2022-10-23T09:46:43.311Z,15.04
2022-10-23T09:49:18.121Z,15.20
2022-10-23T09:52:01.361Z,15.13
2022-10-23T09:54:30.711Z,15.10
2022-10-23T09:57:03.462Z,15.07
2022-10-23T09:59:31.150Z,15.08
2022-10-23T10:02:02.277Z,14.96
2022-10-23T10:04:41.707Z,15.31
2022-10-23T10:07:36.650Z,15.34
2022-10-23T10:10:13.599Z,15.51
2022-10-23T10:12:52.866Z,15.63
2022-10-23T10:15:43.222Z,15.68
2022-10-23T10:18:18.284Z,15.71
2022-10-23T10:21:03.383Z,15.71
2022-10-23T10:23:45.459Z,15.85
2022-10-23T10:29:11.794Z,16.06
2022-10-23T10:31:58.957Z,16.04
2022-10-23T10:34:55.136Z,16.00
2022-10-23T10:37:31.826Z,16.18
2022-10-23T10:40:23.338Z,16.25
2022-10-23T10:43:00.540Z,16.21
2022-10-23T10:45:38.357Z,16.32
2022-10-23T10:48:39.927Z,16.50
2022-10-23T10:51:23.942Z,16.36
2022-10-23T10:54:27.720Z,16.39
2022-10-23T10:56:55.400Z,16.14
2022-10-23T10:59:28.035Z,16.17
2022-10-23T11:02:20.093Z,16.16
2022-10-23T11:05:06.743Z,16.38
2022-10-23T11:07:42.257Z,16.36
2022-10-23T11:10:17.593Z,16.50
2022-10-23T11:12:46.831Z,16.46
2022-10-23T11:15:20.633Z,16.54
2022-10-23T11:17:51.076Z,16.54
2022-10-23T11:20:55.852Z,16.68
2022-10-23T11:23:48.008Z,16.82
2022-10-23T11:26:34.110Z,16.93
2022-10-23T11:29:18.894Z,17.10
2022-10-23T11:32:03.410Z,17.20
2022-10-23T11:34:57.741Z,17.37
2022-10-23T11:37:24.530Z,17.45
2022-10-23T11:40:01.722Z,17.24
2022-10-23T11:42:40.176Z,17.25
2022-10-23T11:45:33.162Z,17.10
2022-10-23T11:48:20.907Z,17.11
2022-10-23T11:50:47.196Z,17.04
2022-10-23T11:53:32.215Z,16.99
2022-10-23T11:56:13.470Z,17.06
2022-10-23T11:58:49.456Z,16.95
2022-10-23T12:01:37.396Z,16.85
2022-10-23T12:04:14.891Z,17.05
2022-10-23T12:06:54.269Z,17.01
2022-10-23T12:09:29.839Z,17.09
2022-10-23T12:12:14.760Z,17.00
2022-10-23T12:14:45.616Z,17.01
2022-10-23T12:17:24.200Z,16.79
2022-10-23T12:19:54.976Z,16.77
2022-10-23T12:22:32.702Z,16.72
2022-10-23T12:25:08.663Z,16.67
2022-10-23T12:27:45.872Z,16.73
2022-10-23T12:30:32.742Z,16.93
2022-10-23T12:33:29.046Z,16.88
2022-10-23T12:36:24.995Z,17.05
2022-10-23T12:38:51.294Z,17.09
2022-10-23T12:41:24.121Z,17.04
2022-10-23T12:43:55.800Z,16.99
2022-10-23T12:46:30.308Z,16.81
2022-10-23T12:48:58.304Z,16.67
2022-10-23T12:51:29.761Z,16.48
2022-10-23T12:53:56.670Z,16.46
2022-10-23T12:56:25.103Z,16.43
2022-10-23T12:58:55.504Z,16.40
2022-10-23T13:01:33.781Z,16.33
2022-10-23T13:04:31.998Z,16.43
2022-10-23T13:07:00.711Z,16.36
2022-10-23T13:09:40.846Z,16.25
2022-10-23T13:12:14.822Z,16.11
2022-10-23T13:14:54.127Z,16.15
2022-10-23T13:17:20.449Z,16.26
2022-10-23T13:19:46.849Z,16.17
2022-10-23T13:22:20.849Z,16.14
2022-10-23T13:24:47.764Z,16.14
2022-10-23T13:27:33.511Z,16.28
2022-10-23T13:30:00.206Z,16.34
2022-10-23T13:32:30.014Z,16.41
2022-10-23T13:35:10.029Z,16.58
2022-10-23T13:40:24.567Z,16.65
2022-10-23T13:42:52.754Z,16.85
2022-10-23T13:45:22.994Z,16.78
2022-10-23T13:47:49.826Z,16.82
2022-10-23T13:50:17.063Z,16.87
2022-10-23T13:52:43.419Z,16.91
2022-10-23T13:55:22.943Z,16.82
2022-10-23T13:57:49.488Z,16.72
2022-10-23T14:00:16.494Z,16.71
2022-10-23T14:02:43.477Z,16.53
2022-10-23T14:05:10.482Z,16.65
2022-10-23T14:07:36.856Z,16.47
2022-10-23T14:10:04.227Z,16.53
2022-10-23T14:12:30.628Z,16.62
2022-10-23T14:14:56.969Z,16.72
2022-10-23T14:17:23.299Z,16.78
2022-10-23T14:19:49.622Z,16.81
2022-10-23T14:22:15.962Z,16.95
2022-10-23T14:24:42.287Z,17.14
2022-10-23T14:27:08.604Z,17.22
2022-10-23T14:29:35.050Z,17.31
2022-10-23T14:32:01.345Z,17.34
2022-10-23T14:34:27.686Z,17.39
2022-10-23T14:37:07.396Z,17.39
2022-10-23T14:39:34.815Z,17.30
2022-10-23T14:42:01.191Z,17.15
2022-10-23T14:44:27.549Z,17.13
2022-10-23T14:46:53.879Z,17.05
2022-10-23T14:49:20.230Z,17.01
2022-10-23T14:51:46.531Z,16.91
2022-10-23T14:54:12.854Z,16.88
2022-10-23T14:56:39.250Z,16.76
2022-10-23T14:59:05.565Z,16.73
2022-10-23T15:01:34.358Z,16.64
2022-10-23T15:04:00.772Z,16.91
2022-10-23T15:06:27.220Z,16.89
2022-10-23T15:08:54.102Z,16.91
2022-10-23T15:11:20.873Z,16.66
2022-10-23T15:13:47.313Z,16.57
2022-10-23T15:16:13.790Z,16.45
2022-10-23T15:18:40.140Z,16.37
2022-10-23T15:21:08.058Z,16.45
2022-10-23T15:23:40.033Z,16.32
2022-10-23T15:26:16.261Z,16.18
2022-10-23T15:28:42.588Z,16.14
2022-10-23T15:31:29.770Z,16.13
2022-10-23T15:33:56.912Z,16.21
2022-10-23T15:36:23.427Z,16.17
2022-10-23T15:38:50.002Z,16.12
2022-10-23T15:41:21.018Z,16.24
2022-10-23T15:43:47.486Z,15.96
2022-10-23T15:46:13.861Z,15.91
2022-10-23T15:48:40.127Z,15.85
2022-10-23T15:51:06.383Z,15.61
2022-10-23T15:53:33.140Z,15.68
2022-10-23T15:55:59.425Z,15.52
2022-10-23T15:58:26.182Z,15.58
2022-10-23T16:00:52.472Z,15.51
2022-10-23T16:03:18.773Z,15.46
2022-10-23T16:05:45.117Z,15.44
2022-10-23T16:08:11.398Z,15.45
2022-10-23T16:10:42.277Z,15.38
2022-10-23T16:13:09.101Z,15.30
2022-10-23T16:15:36.195Z,15.26
2022-10-23T16:18:02.527Z,15.23
2022-10-23T16:20:28.907Z,15.07
2022-10-23T16:22:55.210Z,14.98
2022-10-23T16:25:21.573Z,14.92
2022-10-23T16:27:47.954Z,15.01
2022-10-23T16:30:14.855Z,15.02
2022-10-23T16:32:41.203Z,15.07
2022-10-23T16:35:11.019Z,15.01
2022-10-23T16:37:39.392Z,15.03
2022-10-23T16:40:06.256Z,15.14
2022-10-23T16:42:32.582Z,15.08
2022-10-23T16:44:58.899Z,15.06
2022-10-23T16:47:26.806Z,15.10
2022-10-23T16:49:53.111Z,15.18
2022-10-23T16:52:19.445Z,15.19
2022-10-23T16:54:45.781Z,15.28
2022-10-23T16:57:12.108Z,15.30
2022-10-23T16:59:38.446Z,15.35
2022-10-23T17:02:05.131Z,15.35
2022-10-23T17:04:31.613Z,15.24
2022-10-23T17:06:57.982Z,15.05
2022-10-23T17:09:24.290Z,14.92
2022-10-23T17:11:50.610Z,14.79
2022-10-23T17:14:19.087Z,14.68
2022-10-23T17:16:51.197Z,14.48
2022-10-23T17:19:40.018Z,14.40
2022-10-23T17:22:07.088Z,14.42
2022-10-23T17:24:33.403Z,14.22
2022-10-23T17:27:00.149Z,14.21
2022-10-23T17:29:26.515Z,14.24
2022-10-23T17:31:52.865Z,14.27
2022-10-23T17:34:22.275Z,14.15
2022-10-23T17:36:51.460Z,14.27
2022-10-23T17:39:21.685Z,14.22
2022-10-23T17:41:48.564Z,14.17
2022-10-23T17:44:15.154Z,14.12
2022-10-23T17:46:41.568Z,14.24
2022-10-23T17:49:08.110Z,14.18
2022-10-23T17:51:35.747Z,14.10
2022-10-23T17:54:05.342Z,14.07
2022-10-23T17:56:33.051Z,14.11
2022-10-23T17:59:02.719Z,14.19
2022-10-23T18:01:29.772Z,14.13
2022-10-23T18:03:59.756Z,13.98
2022-10-23T18:06:29.764Z,14.06
2022-10-23T18:08:56.568Z,13.98
2022-10-23T18:11:26.345Z,14.00
2022-10-23T18:13:53.695Z,14.08
2022-10-23T18:16:20.851Z,14.05
2022-10-23T18:18:48.499Z,14.06
2022-10-23T18:21:16.561Z,14.09
2022-10-23T18:23:43.071Z,14.12
2022-10-23T18:26:24.463Z,14.06
2022-10-23T18:28:53.218Z,14.08
2022-10-23T18:31:20.158Z,14.06
2022-10-23T18:33:47.199Z,14.10
2022-10-23T18:36:22.119Z,14.28
2022-10-23T18:38:49.062Z,14.14
2022-10-23T18:41:16.287Z,14.13
2022-10-23T18:43:44.377Z,14.21
2022-10-23T18:46:15.223Z,14.25
2022-10-23T18:48:42.641Z,14.33
2022-10-23T18:51:24.683Z,14.22
2022-10-23T18:53:51.725Z,14.24
2022-10-23T18:56:20.771Z,14.20
2022-10-23T18:58:47.439Z,14.21
2022-10-23T19:01:13.815Z,14.11
2022-10-23T19:03:40.289Z,14.15
2022-10-23T19:06:08.167Z,14.19
2022-10-23T19:08:39.907Z,14.27
2022-10-23T19:11:10.135Z,14.23
2022-10-23T19:13:39.027Z,14.07
2022-10-23T19:16:21.122Z,14.04
2022-10-23T19:18:54.011Z,14.03
2022-10-23T19:21:23.721Z,14.11
2022-10-23T19:23:50.622Z,14.07
2022-10-23T19:26:17.425Z,14.02
2022-10-23T19:28:47.310Z,13.96
2022-10-23T19:31:13.788Z,13.90
2022-10-23T19:33:40.148Z,13.95
2022-10-23T19:36:11.100Z,13.89
2022-10-23T19:38:40.401Z,13.97
2022-10-23T19:41:07.295Z,14.12
2022-10-23T19:43:33.643Z,13.94
2022-10-23T19:46:06.499Z,13.94
2022-10-23T19:48:35.832Z,13.91
2022-10-23T19:51:02.175Z,13.94
2022-10-23T19:53:28.549Z,13.90
2022-10-23T19:56:03.638Z,13.85
2022-10-23T19:58:29.981Z,13.78
2022-10-23T20:00:56.325Z,13.75
2022-10-23T20:03:22.654Z,13.75
2022-10-23T20:05:48.964Z,13.73
2022-10-23T20:08:15.431Z,13.75
2022-10-23T20:10:43.140Z,13.65
2022-10-23T20:13:19.332Z,13.71
2022-10-23T20:15:46.794Z,13.72
2022-10-23T20:18:13.099Z,13.69
2022-10-23T20:20:40.883Z,13.67
2022-10-23T20:23:07.426Z,13.69
2022-10-23T20:25:33.774Z,13.61
2022-10-23T20:28:00.169Z,13.59
2022-10-23T20:30:26.559Z,13.49
2022-10-23T20:32:52.948Z,13.46
2022-10-23T20:35:19.305Z,13.43
2022-10-23T20:37:46.101Z,13.49
2022-10-23T20:40:12.723Z,13.44
2022-10-23T20:42:39.054Z,13.44
2022-10-23T20:45:05.999Z,13.39
2022-10-23T20:47:32.343Z,13.38
2022-10-23T20:49:58.693Z,13.37
2022-10-23T20:52:25.032Z,13.24
2022-10-23T20:54:51.352Z,13.25
2022-10-23T20:57:20.597Z,13.12
2022-10-23T20:59:47.760Z,13.09
2022-10-23T21:02:14.146Z,13.06
2022-10-23T21:04:40.567Z,13.00
2022-10-23T21:07:11.432Z,13.03
2022-10-23T21:09:38.862Z,13.01
2022-10-23T21:12:06.107Z,13.01
2022-10-23T21:14:32.517Z,12.92
2022-10-23T21:16:58.902Z,12.91
2022-10-23T21:19:25.243Z,12.94
2022-10-23T21:21:51.563Z,12.92
2022-10-23T21:24:17.913Z,12.87
2022-10-23T21:26:45.282Z,12.84
2022-10-23T21:29:18.550Z,12.90
2022-10-23T21:31:45.209Z,12.82
2022-10-23T21:36:54.153Z,12.78
2022-10-23T21:39:29.168Z,12.82
2022-10-23T21:41:55.479Z,12.90
2022-10-23T21:44:21.857Z,12.94
2022-10-23T21:46:48.163Z,12.95
2022-10-23T21:49:14.489Z,12.86
2022-10-23T21:51:40.870Z,12.87
2022-10-23T21:54:11.317Z,12.84
2022-10-23T21:56:45.081Z,12.85
2022-10-23T21:59:16.511Z,12.92
2022-10-23T22:01:45.618Z,13.02
2022-10-23T22:04:13.490Z,13.06
2022-10-23T22:06:41.099Z,13.04
2022-10-23T22:09:08.869Z,13.09
2022-10-23T22:11:35.272Z,13.14
2022-10-23T22:14:01.577Z,13.20
2022-10-23T22:16:28.135Z,13.15
2022-10-23T22:18:54.486Z,13.18
2022-10-23T22:21:26.703Z,13.20
2022-10-23T22:23:58.028Z,13.17
2022-10-23T22:26:31.705Z,13.30
2022-10-23T22:29:00.861Z,13.37
2022-10-23T22:31:29.887Z,13.42
2022-10-23T22:33:57.212Z,13.63
2022-10-23T22:36:24.765Z,13.67
2022-10-23T22:38:51.515Z,13.71
2022-10-23T22:41:18.075Z,13.78
2022-10-23T22:43:44.447Z,13.77
2022-10-23T22:46:16.690Z,13.68
2022-10-23T22:48:43.624Z,13.68
2022-10-23T22:51:15.357Z,13.75
2022-10-23T22:53:42.501Z,13.73
2022-10-23T22:56:11.920Z,13.76
2022-10-23T22:58:38.288Z,13.64
2022-10-23T23:01:09.419Z,13.60
2022-10-23T23:03:37.410Z,13.57
2022-10-23T23:06:06.415Z,13.53
2022-10-23T23:08:33.502Z,13.44
2022-10-23T23:11:00.704Z,13.46
2022-10-23T23:13:27.806Z,13.44
2022-10-23T23:15:55.097Z,13.32
2022-10-23T23:18:21.841Z,13.18
2022-10-23T23:20:48.544Z,13.16
2022-10-23T23:23:15.458Z,13.15
2022-10-23T23:25:43.597Z,13.07
2022-10-23T23:28:17.036Z,13.00
2022-10-23T23:30:43.822Z,12.93
2022-10-23T23:33:11.525Z,12.85
2022-10-23T23:35:42.965Z,12.84
2022-10-23T23:38:09.992Z,12.79
2022-10-23T23:40:36.345Z,12.81
2022-10-23T23:43:03.433Z,12.75
2022-10-23T23:45:29.795Z,12.70
2022-10-23T23:47:57.285Z,12.70
2022-10-23T23:50:24.918Z,12.65
2022-10-23T23:52:51.341Z,12.64
2022-10-23T23:55:17.751Z,12.62
2022-10-23T23:57:44.230Z,12.58
